Time;durP1;ratioP1;P1;durP2;ratioP2;P2;SDS_P1;SDS_P2;PMS_P1;PMS_P2;Temp;Humidity;BMP_temperature;BMP_pressure;BME280_temperature;BME280_humidity;BME280_pressure;Samples;Min_cycle;Max_cycle;Signal;HPM_P1;HPM_P2
2022/01/22 00:00:24;;;;;;;20.90;3.22;;;6.80;99.90;;;;;;4998699;28;20033;-90
2022/01/22 00:02:51;;;;;;;18.85;3.50;;;6.80;99.90;;;;;;5020578;28;20041;-91
2022/01/22 00:05:19;;;;;;;18.10;2.83;;;6.80;99.90;;;;;;5021500;28;20037;-90
2022/01/22 00:07:45;;;;;;;19.73;3.00;;;6.80;99.90;;;;;;5020308;28;20041;-88
2022/01/22 00:10:14;;;;;;;16.42;2.78;;;7.90;99.90;;;;;;5010951;28;20052;-90
2022/01/22 00:15:21;;;;;;;12.82;2.63;;;8.10;99.90;;;;;;5042331;28;20132;-89
2022/01/22 00:17:48;;;;;;;15.02;2.95;;;7.90;99.90;;;;;;5021542;28;20173;-89
2022/01/22 00:20:15;;;;;;;15.07;2.97;;;7.60;99.90;;;;;;5036580;28;20083;-91
2022/01/22 00:22:42;;;;;;;19.05;3.38;;;7.60;99.90;;;;;;5001253;28;20409;-89
2022/01/22 00:25:09;;;;;;;13.43;2.50;;;8.10;99.90;;;;;;5026920;28;20052;-89
2022/01/22 00:27:39;;;;;;;17.00;2.80;;;6.80;99.90;;;;;;5009182;28;20034;-89
2022/01/22 00:30:07;;;;;;;14.57;2.95;;;6.80;99.90;;;;;;4999672;28;20629;-89
2022/01/22 00:32:33;;;;;;;16.25;2.60;;;6.80;99.90;;;;;;5029376;28;20120;-89
2022/01/22 00:34:59;;;;;;;13.85;2.40;;;7.70;99.90;;;;;;5009297;28;20116;-90
2022/01/22 00:37:25;;;;;;;11.07;2.20;;;6.70;99.90;;;;;;5011482;28;20068;-90
2022/01/22 00:39:51;;;;;;;14.63;2.60;;;6.80;99.90;;;;;;5017030;28;20029;-90
2022/01/22 00:42:17;;;;;;;10.77;2.20;;;8.50;99.90;;;;;;4997544;28;20029;-89
2022/01/22 00:44:43;;;;;;;13.73;3.45;;;6.80;99.90;;;;;;5009423;28;20029;-90
2022/01/22 00:47:10;;;;;;;11.07;2.28;;;6.80;99.90;;;;;;5030375;28;20056;-89
2022/01/22 00:49:38;;;;;;;13.23;2.35;;;6.80;99.90;;;;;;5015275;28;20137;-90
2022/01/22 00:52:04;;;;;;;13.60;2.30;;;6.80;99.90;;;;;;5013833;28;20256;-88
2022/01/22 00:54:31;;;;;;;9.15;2.10;;;6.80;99.90;;;;;;5025097;28;20029;-89
2022/01/22 00:56:57;;;;;;;12.65;2.20;;;8.20;99.90;;;;;;5006744;28;20030;-89
2022/01/22 00:59:23;;;;;;;12.10;2.30;;;6.90;99.90;;;;;;5013921;28;20625;-88
2022/01/22 01:01:49;;;;;;;13.68;2.55;;;8.20;99.90;;;;;;5026744;28;20399;-90
2022/01/22 01:04:15;;;;;;;13.43;2.20;;;6.80;99.90;;;;;;5011850;28;20100;-88
2022/01/22 01:06:41;;;;;;;15.10;2.95;;;7.90;99.90;;;;;;5003609;28;20033;-89
2022/01/22 01:09:09;;;;;;;14.73;2.30;;;8.30;99.90;;;;;;5016376;28;20037;-89
2022/01/22 01:11:41;;;;;;;11.02;2.42;;;8.20;99.90;;;;;;5014404;28;20095;-88
2022/01/22 01:14:10;;;;;;;12.65;2.47;;;6.70;99.90;;;;;;5022313;28;20038;-89
2022/01/22 01:35:38;;;;;;;8.02;1.80;;;8.10;99.90;;;;;;5044242;28;20068;-89
2022/01/22 01:38:04;;;;;;;12.65;2.40;;;7.10;99.90;;;;;;5044633;28;20124;-90
2022/01/22 01:40:32;;;;;;;12.80;2.35;;;6.80;99.90;;;;;;5028684;28;20064;-88
2022/01/22 01:43:22;;;;;;;14.82;2.83;;;6.80;99.90;;;;;;5006086;28;20458;-90
2022/01/22 01:45:46;;;;;;;13.65;2.35;;;7.30;99.90;;;;;;5022744;28;20402;-90
2022/01/22 01:48:17;;;;;;;11.57;2.20;;;8.00;99.90;;;;;;5024227;28;20049;-89
2022/01/22 01:50:44;;;;;;;12.73;2.03;;;6.80;99.90;;;;;;5025384;28;20441;-89
2022/01/22 01:53:24;;;;;;;12.25;2.00;;;6.80;99.90;;;;;;4999070;28;20084;-90
2022/01/22 01:56:03;;;;;;;10.23;2.38;;;7.80;99.90;;;;;;5022925;28;20056;-90
2022/01/22 01:58:29;;;;;;;13.93;2.30;;;6.80;99.90;;;;;;4994837;28;20418;-88
2022/01/22 02:00:56;;;;;;;14.07;2.42;;;8.00;99.90;;;;;;5023244;28;20041;-90
2022/01/22 02:03:23;;;;;;;11.90;2.28;;;8.20;99.90;;;;;;5003697;28;20055;-89
2022/01/22 02:05:49;;;;;;;13.35;2.30;;;8.10;99.90;;;;;;5026445;28;20041;-90
2022/01/22 02:08:16;;;;;;;15.80;2.60;;;6.80;99.90;;;;;;5009274;28;20037;-89
2022/01/22 02:10:44;;;;;;;12.52;2.55;;;6.70;99.90;;;;;;4999046;28;20470;-90
2022/01/22 02:24:09;;;;;;;14.55;2.25;;;7.80;99.90;;;;;;5021036;28;20041;-88
2022/01/22 02:26:35;;;;;;;12.02;2.60;;;7.50;99.90;;;;;;5004980;28;20043;-90
2022/01/22 02:29:00;;;;;;;10.95;2.20;;;6.90;99.90;;;;;;5007046;28;20061;-89
2022/01/22 02:34:10;;;;;;;14.07;2.90;;;8.00;99.90;;;;;;5020828;28;20123;-90
2022/01/22 02:36:42;;;;;;;12.40;2.90;;;7.60;99.90;;;;;;5054308;28;20120;-89
2022/01/22 02:41:41;;;;;;;14.15;3.42;;;6.70;99.90;;;;;;5015565;28;20594;-89
2022/01/22 02:44:11;;;;;;;15.93;2.53;;;7.80;99.90;;;;;;5013502;28;20041;-90
2022/01/22 02:46:41;;;;;;;12.10;2.50;;;7.60;99.90;;;;;;5035642;28;20072;-89
2022/01/22 02:49:07;;;;;;;11.77;2.60;;;8.10;99.90;;;;;;5012505;28;20033;-89
2022/01/22 02:51:33;;;;;;;12.15;2.47;;;6.70;99.90;;;;;;4999409;28;20477;-89
2022/01/22 02:54:00;;;;;;;13.73;2.40;;;6.70;99.90;;;;;;5021500;28;20037;-89
2022/01/22 02:56:26;;;;;;;11.82;2.28;;;6.70;99.90;;;;;;4998163;28;20063;-89
2022/01/22 02:58:53;;;;;;;7.65;1.88;;;6.70;99.90;;;;;;4998553;28;20089;-89
2022/01/22 03:01:20;;;;;;;11.75;2.05;;;7.10;99.90;;;;;;5015759;28;20485;-90
2022/01/22 03:03:46;;;;;;;9.55;1.90;;;6.70;99.90;;;;;;5023606;28;20029;-90
2022/01/22 03:06:12;;;;;;;11.90;2.13;;;6.70;99.90;;;;;;5007874;28;20345;-89
2022/01/22 03:08:39;;;;;;;9.85;2.13;;;6.70;99.90;;;;;;5011389;28;20124;-89
2022/01/22 03:11:16;;;;;;;13.20;2.13;;;8.20;99.90;;;;;;5011759;28;20037;-89
2022/01/22 03:16:27;;;;;;;15.90;2.30;;;6.70;99.90;;;;;;5015908;28;20044;-89
2022/01/22 03:19:05;;;;;;;11.38;2.08;;;7.10;99.90;;;;;;5003373;28;20073;-89
2022/01/22 03:21:39;;;;;;;13.57;2.20;;;7.70;99.90;;;;;;5022018;28;20502;-90
2022/01/22 03:29:37;;;;;;;11.45;2.20;;;6.60;99.90;;;;;;5019963;28;20045;-89
2022/01/22 03:32:04;;;;;;;16.42;2.20;;;7.70;99.90;;;;;;5022224;28;20049;-89
2022/01/22 03:34:36;;;;;;;14.07;2.17;;;6.60;99.90;;;;;;5028308;28;20124;-90
2022/01/22 03:37:03;;;;;;;11.47;2.10;;;7.10;99.90;;;;;;5009257;28;20091;-89
2022/01/22 03:39:29;;;;;;;9.65;1.90;;;6.60;99.90;;;;;;5010682;28;20180;-89
2022/01/22 03:41:54;;;;;;;10.18;1.92;;;6.50;99.90;;;;;;5006367;28;20470;-89
2022/01/22 03:44:20;;;;;;;12.52;1.95;;;7.60;99.90;;;;;;4998262;28;20037;-90
2022/01/22 03:46:46;;;;;;;11.95;2.15;;;6.60;99.90;;;;;;4995195;28;20041;-92
2022/01/22 03:49:13;;;;;;;10.60;2.13;;;7.80;99.90;;;;;;5027999;28;20393;-89
2022/01/22 03:51:39;;;;;;;11.23;2.42;;;8.00;99.90;;;;;;5007022;28;20121;-89
2022/01/22 03:54:04;;;;;;;11.52;2.08;;;6.40;99.90;;;;;;5002130;28;20120;-90
2022/01/22 03:56:30;;;;;;;11.13;2.30;;;6.60;99.90;;;;;;4996352;28;20041;-90
2022/01/22 03:58:56;;;;;;;9.10;2.00;;;6.80;99.90;;;;;;5011750;28;20429;-90
2022/01/22 04:02:00;;;;;;;8.77;1.77;;;7.80;99.90;;;;;;5021901;28;20029;-89
2022/01/22 04:04:15;;;;;;;7.13;1.80;;;6.60;99.90;;;;;;5024289;28;20119;-89
2022/01/22 04:09:28;;;;;;;13.48;2.10;;;7.70;99.90;;;;;;5026072;28;20080;-89
2022/01/22 04:11:56;;;;;;;11.25;2.17;;;7.10;99.90;;;;;;4998856;28;20047;-89
2022/01/22 04:14:27;;;;;;;14.85;2.55;;;6.50;99.90;;;;;;5007654;28;20041;-90
2022/01/22 04:25:09;;;;;;;10.77;2.15;;;6.50;99.90;;;;;;5003394;28;20048;-89
2022/01/22 04:27:35;;;;;;;9.60;1.85;;;6.50;99.90;;;;;;5021682;28;20076;-90
2022/01/22 04:30:01;;;;;;;7.68;1.88;;;7.30;99.90;;;;;;5022921;28;20080;-91
2022/01/22 04:32:28;;;;;;;6.88;2.10;;;6.50;99.90;;;;;;5012727;28;20084;-88
2022/01/22 04:34:55;;;;;;;8.68;1.75;;;7.50;99.90;;;;;;5039560;28;20037;-89
2022/01/22 04:37:21;;;;;;;8.90;1.90;;;7.80;99.90;;;;;;4998794;28;20096;-90
2022/01/22 04:39:48;;;;;;;7.85;1.90;;;8.00;99.90;;;;;;5022935;28;20543;-91
2022/01/22 04:42:15;;;;;;;9.02;1.90;;;7.80;99.90;;;;;;5026186;28;20510;-89
2022/01/22 04:45:06;;;;;;;10.77;2.03;;;6.40;99.90;;;;;;5004859;28;20098;-90
2022/01/22 04:55:38;;;;;;;9.45;2.28;;;7.40;99.90;;;;;;5022213;28;20068;-90
2022/01/22 04:58:06;;;;;;;12.02;2.40;;;7.90;99.90;;;;;;5027906;28;20370;-90
2022/01/22 05:00:40;;;;;;;11.00;2.53;;;7.90;99.90;;;;;;5015518;28;20422;-90
2022/01/22 05:03:06;;;;;;;9.55;2.10;;;7.80;99.90;;;;;;5046125;28;20040;-90
2022/01/22 05:05:32;;;;;;;8.30;2.20;;;6.70;99.90;;;;;;5006670;28;20434;-89
2022/01/22 05:07:58;;;;;;;8.73;2.15;;;7.40;99.90;;;;;;5000259;28;20132;-90
2022/01/22 05:10:24;;;;;;;11.95;2.67;;;6.50;99.90;;;;;;5048862;28;20124;-90
2022/01/22 05:12:51;;;;;;;9.25;2.10;;;7.60;99.90;;;;;;5032966;28;20040;-89
2022/01/22 05:15:17;;;;;;;12.57;2.25;;;7.00;99.90;;;;;;5012536;28;20116;-90
2022/01/22 05:17:44;;;;;;;11.05;2.25;;;6.50;99.90;;;;;;5015822;28;20041;-89
2022/01/22 05:20:22;;;;;;;11.73;2.47;;;6.50;99.90;;;;;;5016023;28;20033;-89
2022/01/22 05:25:20;;;;;;;8.10;1.85;;;6.50;99.90;;;;;;5019664;28;20379;-89
2022/01/22 05:28:14;;;;;;;11.50;2.38;;;7.30;99.90;;;;;;5009373;28;20033;-89
2022/01/22 05:38:31;;;;;;;11.05;1.88;;;6.50;99.90;;;;;;5042552;28;20048;-90
2022/01/22 05:40:57;;;;;;;10.63;2.10;;;8.00;99.90;;;;;;5011556;28;20037;-89
2022/01/22 05:43:23;;;;;;;11.30;2.28;;;8.10;99.90;;;;;;5027487;28;20511;-90
2022/01/22 05:45:49;;;;;;;13.93;2.47;;;7.30;99.90;;;;;;5013160;28;20033;-90
2022/01/22 05:48:14;;;;;;;12.45;2.40;;;7.30;99.90;;;;;;5007907;28;20564;-89
2022/01/22 05:53:28;;;;;;;9.43;2.23;;;6.50;99.90;;;;;;5019977;28;20110;-90
2022/01/22 06:01:13;;;;;;;13.25;2.20;;;6.60;99.90;;;;;;5033495;28;20457;-90
2022/01/22 06:03:39;;;;;;;12.70;2.40;;;6.50;99.90;;;;;;5008138;28;20120;-89
2022/01/22 06:06:05;;;;;;;12.23;2.75;;;6.50;99.90;;;;;;5025151;28;20465;-89
2022/01/22 06:08:33;;;;;;;16.70;2.17;;;7.50;99.90;;;;;;5013902;28;20096;-90
2022/01/22 06:11:08;;;;;;;12.75;2.47;;;6.70;99.90;;;;;;5005779;28;20052;-89
2022/01/22 06:13:44;;;;;;;12.88;2.30;;;8.00;99.90;;;;;;5030964;28;20041;-90
2022/01/22 06:16:24;;;;;;;12.00;2.30;;;7.20;99.90;;;;;;5009167;28;20120;-89
2022/01/22 06:18:50;;;;;;;12.73;2.45;;;6.50;99.90;;;;;;5030205;28;20053;-89
2022/01/22 06:21:16;;;;;;;11.88;2.40;;;6.60;99.90;;;;;;5035215;28;20029;-90
2022/01/22 06:23:45;;;;;;;8.57;2.00;;;8.10;99.90;;;;;;5010966;28;20491;-89
2022/01/22 06:26:11;;;;;;;10.35;2.22;;;7.50;99.90;;;;;;5014726;28;20037;-89
2022/01/22 06:28:37;;;;;;;9.68;2.10;;;7.80;99.90;;;;;;5028505;28;20040;-90
2022/01/22 06:31:04;;;;;;;12.27;2.45;;;6.50;99.90;;;;;;5036642;28;20044;-89
2022/01/22 06:33:30;;;;;;;11.57;2.13;;;6.50;99.90;;;;;;5014215;28;20048;-90
2022/01/22 06:35:56;;;;;;;15.30;2.20;;;8.00;99.90;;;;;;5022766;28;20041;-90
2022/01/22 06:38:41;;;;;;;15.32;2.40;;;7.50;99.90;;;;;;4997963;28;20052;-89
2022/01/22 06:43:51;;;;;;;15.82;2.15;;;6.50;99.90;;;;;;5021032;28;20037;-89
2022/01/22 06:46:17;;;;;;;9.95;2.15;;;7.30;99.90;;;;;;5010370;28;20043;-89
2022/01/22 06:48:42;;;;;;;9.80;2.13;;;6.70;99.90;;;;;;5000157;28;20048;-88
2022/01/22 06:51:08;;;;;;;12.38;2.65;;;8.20;99.90;;;;;;5028781;28;20064;-90
2022/01/22 06:53:37;;;;;;;7.07;1.80;;;7.30;99.90;;;;;;4991122;28;20282;-89
2022/01/22 06:56:04;;;;;;;10.65;2.20;;;6.50;99.90;;;;;;5009443;28;20351;-89
2022/01/22 06:58:30;;;;;;;9.02;2.10;;;6.50;99.90;;;;;;5014518;28;20585;-89
2022/01/22 07:00:56;;;;;;;8.68;1.80;;;7.70;99.90;;;;;;5034485;28;20112;-89
2022/01/22 07:03:22;;;;;;;10.70;2.15;;;6.50;99.90;;;;;;5001861;28;20059;-89
2022/01/22 07:05:48;;;;;;;10.70;2.58;;;7.10;99.90;;;;;;4995010;28;20045;-89
2022/01/22 07:08:13;;;;;;;12.68;2.30;;;6.40;99.90;;;;;;4996819;28;20154;-89
2022/01/22 07:10:39;;;;;;;6.47;1.80;;;7.60;99.90;;;;;;5026990;28;20045;-89
2022/01/22 07:13:05;;;;;;;9.38;2.08;;;7.10;99.90;;;;;;5009735;28;20040;-89
2022/01/22 07:15:31;;;;;;;11.38;2.15;;;7.50;99.90;;;;;;5021842;28;20201;-89
2022/01/22 07:17:57;;;;;;;10.05;2.22;;;6.40;99.90;;;;;;5019303;28;20297;-89
2022/01/22 07:20:29;;;;;;;11.23;2.30;;;6.30;99.90;;;;;;5011833;28;20033;-89
2022/01/22 07:23:02;;;;;;;11.27;2.20;;;6.30;99.90;;;;;;5004163;28;20427;-90
2022/01/22 07:25:29;;;;;;;10.65;1.98;;;6.30;99.90;;;;;;5022583;28;20521;-89
2022/01/22 07:27:54;;;;;;;11.32;2.30;;;6.40;99.90;;;;;;5038690;28;20041;-89
2022/01/22 07:30:20;;;;;;;9.95;2.17;;;6.80;99.90;;;;;;5024388;28;20446;-89
2022/01/22 07:32:46;;;;;;;10.73;2.35;;;6.30;99.90;;;;;;5005825;28;20037;-89
2022/01/22 07:35:14;;;;;;;9.02;2.22;;;6.30;99.90;;;;;;5007078;28;20037;-90
2022/01/22 07:37:40;;;;;;;9.23;2.00;;;6.30;99.90;;;;;;5005826;28;20030;-90
2022/01/22 07:40:09;;;;;;;8.25;1.83;;;6.30;99.90;;;;;;5012727;28;20491;-88
2022/01/22 07:42:36;;;;;;;9.52;1.92;;;6.30;99.90;;;;;;5017383;28;20036;-89
2022/01/22 07:45:03;;;;;;;5.85;1.80;;;7.00;99.90;;;;;;5005753;28;20040;-89
2022/01/22 07:47:29;;;;;;;11.93;1.88;;;6.30;99.90;;;;;;5023278;28;20118;-89
2022/01/22 07:49:54;;;;;;;6.43;1.70;;;6.20;99.90;;;;;;5009169;28;20462;-89
2022/01/22 07:52:20;;;;;;;11.02;1.85;;;7.90;99.90;;;;;;5005664;28;20045;-89
2022/01/22 07:54:46;;;;;;;10.55;2.20;;;6.20;99.90;;;;;;5024450;28;20072;-90
2022/01/22 07:57:11;;;;;;;8.45;1.58;;;6.70;99.90;;;;;;5005990;28;20184;-89
2022/01/22 07:59:37;;;;;;;9.57;1.95;;;6.20;99.90;;;;;;5011770;28;20033;-90
2022/01/22 08:02:04;;;;;;;7.97;1.85;;;6.20;99.90;;;;;;4987988;28;20041;-89
2022/01/22 08:04:30;;;;;;;8.82;2.22;;;7.10;99.90;;;;;;5030940;28;20044;-89
2022/01/22 08:07:01;;;;;;;7.65;1.50;;;6.20;99.90;;;;;;5025093;28;20045;-88
2022/01/22 08:09:26;;;;;;;10.63;2.10;;;6.30;99.90;;;;;;5018312;28;20087;-89
2022/01/22 08:11:52;;;;;;;8.38;2.17;;;7.00;99.90;;;;;;5021878;28;20088;-89
2022/01/22 08:14:18;;;;;;;7.05;1.80;;;6.50;99.90;;;;;;5028383;28;20112;-89
2022/01/22 08:16:46;;;;;;;13.65;1.90;;;6.80;99.90;;;;;;5012917;28;20096;-89
2022/01/22 08:19:13;;;;;;;5.55;1.50;;;6.20;99.90;;;;;;5007178;28;20447;-89
2022/01/22 08:21:39;;;;;;;8.23;1.50;;;6.30;99.90;;;;;;5019336;28;20038;-88
2022/01/22 08:24:05;;;;;;;6.18;1.38;;;6.20;99.90;;;;;;5008379;28;20120;-90
2022/01/22 08:26:36;;;;;;;6.78;1.60;;;6.30;99.90;;;;;;5022501;28;20036;-88
2022/01/22 08:29:03;;;;;;;5.65;1.63;;;7.80;99.90;;;;;;4995721;28;20078;-87
2022/01/22 08:36:45;;;;;;;10.93;1.80;;;6.30;99.90;;;;;;5041979;28;20512;-87
2022/01/22 08:39:14;;;;;;;9.98;1.70;;;6.30;99.90;;;;;;5012947;28;20075;-88
2022/01/22 08:41:39;;;;;;;8.57;2.08;;;8.00;99.90;;;;;;5048839;28;20037;-88
2022/01/22 08:44:05;;;;;;;7.78;2.00;;;7.10;99.90;;;;;;5027324;28;20098;-88
2022/01/22 08:46:31;;;;;;;8.75;1.80;;;7.90;99.90;;;;;;5005554;28;20063;-87
2022/01/22 08:48:57;;;;;;;9.73;1.90;;;7.30;99.90;;;;;;5036563;28;20037;-87
2022/01/22 08:51:23;;;;;;;10.20;2.33;;;6.40;99.90;;;;;;5032276;28;20175;-87
2022/01/22 08:53:50;;;;;;;8.60;2.00;;;6.40;99.90;;;;;;5004196;28;20083;-87
2022/01/22 08:56:16;;;;;;;8.35;1.90;;;6.40;99.90;;;;;;5024779;28;20037;-87
2022/01/22 08:58:42;;;;;;;5.85;1.77;;;6.40;99.90;;;;;;5043053;28;20528;-88
2022/01/22 09:01:08;;;;;;;6.45;1.50;;;6.40;99.90;;;;;;5015905;28;20037;-87
2022/01/22 09:03:34;;;;;;;7.50;1.70;;;7.50;99.90;;;;;;5041319;28;20307;-87
2022/01/22 09:06:00;;;;;;;6.82;1.42;;;7.90;99.90;;;;;;5012713;28;20294;-86
2022/01/22 09:08:26;;;;;;;7.10;1.67;;;6.40;99.90;;;;;;5008167;28;20168;-86
2022/01/22 09:10:54;;;;;;;4.43;1.35;;;6.90;99.90;;;;;;4993728;28;20159;-87
2022/01/22 09:13:21;;;;;;;6.50;1.52;;;6.80;99.90;;;;;;5023781;28;20118;-87
2022/01/22 09:15:48;;;;;;;5.97;1.50;;;6.50;99.90;;;;;;5038477;28;20521;-86
2022/01/22 09:18:14;;;;;;;4.82;1.35;;;7.60;99.90;;;;;;5007477;28;20041;-88
2022/01/22 09:23:08;;;;;;;7.90;1.63;;;6.50;99.90;;;;;;5003664;28;20612;-86
2022/01/22 09:25:34;;;;;;;5.32;1.30;;;6.50;99.90;;;;;;5032461;28;20168;-86
2022/01/22 09:27:59;;;;;;;6.32;1.70;;;7.40;99.90;;;;;;5023549;28;20067;-88
2022/01/22 09:30:25;;;;;;;7.18;1.65;;;6.50;99.90;;;;;;5010891;28;20041;-87
2022/01/22 09:32:52;;;;;;;4.70;1.58;;;7.60;99.90;;;;;;5021829;28;20033;-87
2022/01/22 09:35:17;;;;;;;7.03;1.60;;;7.60;99.90;;;;;;5013600;28;20033;-87
2022/01/22 09:37:45;;;;;;;7.78;1.63;;;6.60;99.90;;;;;;5018318;28;20128;-87
2022/01/22 09:40:14;;;;;;;7.95;1.52;;;8.50;99.90;;;;;;5028015;28;20037;-87
2022/01/22 09:42:41;;;;;;;4.97;1.55;;;6.60;99.90;;;;;;5019030;28;20041;-87
2022/01/22 09:45:08;;;;;;;8.73;1.75;;;6.60;99.90;;;;;;5007448;28;20052;-87
2022/01/22 09:47:34;;;;;;;6.93;1.50;;;6.60;99.90;;;;;;5014592;28;20104;-87
2022/01/22 09:50:01;;;;;;;8.75;1.65;;;8.10;99.90;;;;;;5002599;28;20257;-87
2022/01/22 09:52:27;;;;;;;8.45;1.65;;;6.60;99.90;;;;;;5013992;28;20071;-87
2022/01/22 09:54:53;;;;;;;7.00;1.40;;;7.30;99.90;;;;;;5010986;28;20039;-87
2022/01/22 09:57:20;;;;;;;7.55;1.42;;;6.70;99.90;;;;;;5028303;28;20041;-87
2022/01/22 09:59:46;;;;;;;5.38;1.45;;;6.70;99.90;;;;;;5035978;28;20164;-87
2022/01/22 10:02:17;;;;;;;8.43;1.70;;;7.50;99.90;;;;;;5041430;28;20466;-86
2022/01/22 10:04:48;;;;;;;9.55;1.70;;;6.70;99.90;;;;;;5020602;28;20418;-87
2022/01/22 10:07:22;;;;;;;6.45;1.58;;;7.00;99.90;;;;;;5028381;28;20178;-87
2022/01/22 10:09:54;;;;;;;9.38;1.73;;;7.70;99.90;;;;;;5035216;28;20429;-87
2022/01/22 10:12:22;;;;;;;6.38;1.75;;;6.70;99.90;;;;;;5026649;28;20490;-86
2022/01/22 10:15:15;;;;;;;7.38;1.40;;;6.70;99.90;;;;;;5012713;28;20078;-87
2022/01/22 10:17:49;;;;;;;7.97;1.90;;;6.70;99.90;;;;;;5038703;28;20243;-87
2022/01/22 10:20:21;;;;;;;7.10;1.45;;;7.30;99.90;;;;;;5022458;28;20037;-87
2022/01/22 10:22:52;;;;;;;13.60;1.90;;;7.00;99.90;;;;;;5036284;28;20096;-87
2022/01/22 10:25:30;;;;;;;9.30;1.40;;;6.80;99.90;;;;;;5028288;28;20033;-87
2022/01/22 10:28:01;;;;;;;7.10;1.60;;;7.70;99.90;;;;;;5039720;28;20486;-87
2022/01/22 10:30:35;;;;;;;6.43;1.45;;;6.80;99.90;;;;;;5017563;28;20060;-87
2022/01/22 10:35:52;;;;;;;8.82;1.80;;;6.90;99.90;;;;;;5044495;28;20047;-87
2022/01/22 10:38:18;;;;;;;6.45;1.52;;;7.70;99.90;;;;;;5008741;28;20419;-87
2022/01/22 10:40:46;;;;;;;7.85;1.60;;;7.50;99.90;;;;;;5027382;28;20049;-88
2022/01/22 10:43:34;;;;;;;8.65;1.60;;;8.60;99.90;;;;;;5017069;28;20087;-87
2022/01/22 10:46:08;;;;;;;10.25;1.80;;;6.90;99.90;;;;;;5042968;28;20043;-88
2022/01/22 10:48:36;;;;;;;7.45;1.70;;;8.10;99.90;;;;;;5055189;28;20057;-87
2022/01/22 10:51:12;;;;;;;9.02;2.00;;;7.20;99.90;;;;;;5023060;28;20128;-86
2022/01/22 10:53:41;;;;;;;9.10;1.80;;;6.90;99.90;;;;;;5017763;28;20037;-87
2022/01/22 10:56:07;;;;;;;8.30;1.63;;;7.60;99.90;;;;;;5036353;28;20037;-87
2022/01/22 10:58:34;;;;;;;7.13;1.58;;;6.90;99.90;;;;;;5008631;28;20052;-87
2022/01/22 11:01:05;;;;;;;9.70;1.88;;;8.20;99.90;;;;;;5011288;28;20056;-87
2022/01/22 11:03:31;;;;;;;7.88;1.80;;;7.40;99.90;;;;;;5024491;28;20439;-87
2022/01/22 11:05:59;;;;;;;8.00;1.80;;;6.90;99.90;;;;;;5027831;28;20045;-86
2022/01/22 11:08:28;;;;;;;8.38;1.77;;;8.10;99.90;;;;;;5004999;28;20044;-88
2022/01/22 11:10:54;;;;;;;10.05;1.77;;;6.90;99.90;;;;;;5018509;28;20033;-87
2022/01/22 11:13:20;;;;;;;9.27;1.70;;;7.70;99.90;;;;;;4998284;28;20045;-88
2022/01/22 11:15:49;;;;;;;9.45;1.70;;;7.60;99.90;;;;;;5027538;28;20257;-87
2022/01/22 11:18:16;;;;;;;7.93;1.80;;;7.00;99.90;;;;;;5018897;28;20502;-87
2022/01/22 11:20:43;;;;;;;8.75;1.88;;;7.70;99.90;;;;;;4998287;28;20048;-87
2022/01/22 11:23:08;;;;;;;15.95;2.70;;;6.90;99.90;;;;;;5024737;28;20049;-87
2022/01/22 11:25:35;;;;;;;10.35;2.33;;;8.40;99.90;;;;;;5005039;28;20052;-87
2022/01/22 11:28:02;;;;;;;9.85;2.47;;;6.90;99.90;;;;;;5030200;28;20037;-87
2022/01/22 11:30:29;;;;;;;8.75;2.10;;;6.90;99.90;;;;;;5031114;28;20048;-88
2022/01/22 11:33:09;;;;;;;8.52;2.10;;;8.00;99.90;;;;;;5033475;28;20168;-87
2022/01/22 11:35:54;;;;;;;9.48;1.90;;;6.90;99.90;;;;;;5015570;28;20482;-86
2022/01/22 11:38:27;;;;;;;9.32;2.10;;;6.90;99.90;;;;;;5022238;28;20064;-88
2022/01/22 11:41:16;;;;;;;11.70;2.13;;;8.50;99.90;;;;;;5026227;28;20033;-87
2022/01/22 11:46:31;;;;;;;14.88;2.40;;;7.00;99.90;;;;;;5034724;28;20120;-87
2022/01/22 11:49:21;;;;;;;7.97;2.20;;;7.00;99.90;;;;;;5010583;28;21248;-87
2022/01/22 11:52:14;;;;;;;9.85;2.13;;;6.90;99.90;;;;;;5034930;28;20075;-87
2022/01/22 11:54:52;;;;;;;10.70;2.00;;;6.90;99.90;;;;;;5027147;28;20397;-88
2022/01/22 11:57:18;;;;;;;9.73;2.42;;;6.90;99.90;;;;;;5033478;28;20041;-87
2022/01/22 11:59:46;;;;;;;12.25;2.38;;;8.10;99.90;;;;;;4998256;28;20044;-88
2022/01/22 12:02:16;;;;;;;11.98;2.55;;;6.90;99.90;;;;;;5035400;28;20131;-87
2022/01/22 12:04:42;;;;;;;13.15;2.47;;;7.00;99.90;;;;;;5049401;28;20237;-88
2022/01/22 12:07:07;;;;;;;9.27;2.17;;;8.00;99.90;;;;;;5029440;28;20246;-88
2022/01/22 12:15:18;;;;;;;12.13;2.63;;;7.00;99.90;;;;;;5035491;28;20609;-87
2022/01/22 12:17:47;;;;;;;13.65;2.80;;;7.80;99.90;;;;;;5029428;28;20085;-88
2022/01/22 12:23:14;;;;;;;14.95;3.13;;;7.00;99.90;;;;;;5040133;28;20053;-87
2022/01/22 12:25:40;;;;;;;10.00;2.92;;;7.40;99.90;;;;;;5020223;28;20429;-88
2022/01/22 12:28:07;;;;;;;12.50;2.90;;;7.00;99.90;;;;;;5028877;28;20039;-88
2022/01/22 12:30:39;;;;;;;13.80;3.50;;;7.80;99.90;;;;;;5039199;28;20075;-88
2022/01/22 12:33:09;;;;;;;15.90;3.92;;;7.30;99.90;;;;;;5025736;28;20462;-89
2022/01/22 12:35:48;;;;;;;12.32;3.67;;;7.00;99.90;;;;;;5012238;28;20040;-89
2022/01/22 12:38:22;;;;;;;20.33;3.83;;;7.00;99.90;;;;;;5005671;28;20037;-88
2022/01/22 12:40:56;;;;;;;11.23;3.03;;;7.00;99.90;;;;;;5021771;28;20559;-88
2022/01/22 12:43:31;;;;;;;17.50;3.40;;;7.90;99.90;;;;;;5031038;28;20426;-88
2022/01/22 12:46:01;;;;;;;12.90;3.47;;;8.00;99.90;;;;;;4997484;28;20506;-88
2022/01/22 12:48:36;;;;;;;12.80;3.47;;;7.00;99.90;;;;;;5021237;28;20041;-88
2022/01/22 12:51:05;;;;;;;17.42;3.65;;;7.90;99.90;;;;;;5004001;28;20065;-88
2022/01/22 12:53:32;;;;;;;14.27;3.80;;;7.00;99.90;;;;;;5029360;28;20102;-88
2022/01/22 12:58:27;;;;;;;12.38;3.60;;;7.00;99.90;;;;;;5020634;28;20572;-87
2022/01/22 13:01:08;;;;;;;14.38;3.85;;;7.00;99.90;;;;;;5023929;28;20079;-87
2022/01/22 13:03:36;;;;;;;13.07;3.85;;;6.90;99.90;;;;;;5023627;28;20044;-88
2022/01/22 13:06:03;;;;;;;16.15;4.15;;;7.20;99.90;;;;;;5036170;28;20049;-88
2022/01/22 13:08:31;;;;;;;16.05;4.45;;;6.90;99.90;;;;;;5007448;28;20069;-88
2022/01/22 13:11:03;;;;;;;14.63;4.47;;;7.50;99.90;;;;;;5028295;28;20048;-88
2022/01/22 13:13:29;;;;;;;18.20;4.22;;;6.90;99.90;;;;;;5024931;28;20049;-89
2022/01/22 13:16:07;;;;;;;18.65;4.38;;;8.20;99.90;;;;;;5036440;28;20078;-90
2022/01/22 13:18:46;;;;;;;16.92;4.55;;;6.90;99.90;;;;;;5025404;28;20049;-90
2022/01/22 13:21:13;;;;;;;19.08;4.88;;;6.90;99.90;;;;;;5022045;28;20030;-89
2022/01/22 13:23:40;;;;;;;16.73;4.22;;;6.90;99.90;;;;;;5029055;28;20049;-90
2022/01/22 13:26:07;;;;;;;17.98;4.40;;;6.90;99.90;;;;;;5021325;28;20045;-89
2022/01/22 13:28:34;;;;;;;19.08;4.72;;;7.00;99.90;;;;;;5014544;28;20122;-89
2022/01/22 13:31:08;;;;;;;20.38;4.40;;;6.90;99.90;;;;;;5011977;28;20037;-90
2022/01/22 13:49:27;;;;;;;15.82;3.60;;;7.00;99.90;;;;;;5038042;28;20037;-89
2022/01/22 13:52:05;;;;;;;18.02;3.10;;;6.90;99.90;;;;;;5023448;28;20034;-90
2022/01/22 13:54:42;;;;;;;13.15;2.95;;;6.90;99.90;;;;;;5024732;28;20045;-90
2022/01/22 13:57:12;;;;;;;13.25;3.28;;;7.80;99.90;;;;;;5030914;28;20040;-91
2022/01/22 13:59:42;;;;;;;15.75;3.33;;;6.90;99.90;;;;;;5030924;28;20033;-91
2022/01/22 14:04:51;;;;;;;12.07;2.85;;;6.90;99.90;;;;;;5033910;28;20048;-89
2022/01/22 14:07:26;;;;;;;15.35;2.90;;;6.90;99.90;;;;;;5042491;28;20052;-92
2022/01/22 14:10:13;;;;;;;8.45;2.58;;;6.80;99.90;;;;;;5021627;28;20482;-90
2022/01/22 14:12:45;;;;;;;13.43;2.58;;;6.80;99.90;;;;;;5021129;28;20513;-89
2022/01/22 14:15:23;;;;;;;11.18;2.60;;;6.80;99.90;;;;;;5025072;28;20075;-89
2022/01/22 14:17:57;;;;;;;14.05;2.63;;;7.20;99.90;;;;;;5022691;28;20040;-89
2022/01/22 14:20:27;;;;;;;13.00;2.40;;;6.80;99.90;;;;;;5022764;28;20371;-89
2022/01/22 14:23:04;;;;;;;11.85;2.55;;;6.70;99.90;;;;;;5024012;28;20052;-89
2022/01/22 14:25:31;;;;;;;10.13;2.17;;;6.70;99.90;;;;;;5029307;28;20042;-90
2022/01/22 14:28:09;;;;;;;10.70;2.30;;;7.50;99.90;;;;;;5029569;28;20038;-90
2022/01/22 14:30:37;;;;;;;11.20;2.40;;;7.10;99.90;;;;;;5040202;28;20102;-90
2022/01/22 14:33:04;;;;;;;12.20;2.50;;;6.70;99.90;;;;;;5024507;28;20037;-90
2022/01/22 14:35:30;;;;;;;10.70;2.20;;;6.60;99.90;;;;;;5021819;28;20041;-88
2022/01/22 14:37:59;;;;;;;11.10;2.30;;;6.60;99.90;;;;;;5014613;28;20411;-90
2022/01/22 14:46:02;;;;;;;10.20;1.90;;;8.00;99.90;;;;;;5024375;28;20052;-88
2022/01/22 14:48:28;;;;;;;14.85;2.90;;;6.50;99.90;;;;;;5013682;28;20593;-90
2022/01/22 14:50:54;;;;;;;11.63;2.40;;;7.70;99.90;;;;;;5013245;28;20279;-90
2022/01/22 14:53:19;;;;;;;9.15;2.20;;;6.50;99.90;;;;;;5025296;28;20041;-90
2022/01/22 14:55:51;;;;;;;15.45;2.90;;;6.50;99.90;;;;;;5004350;28;20076;-89
2022/01/22 14:58:16;;;;;;;12.30;2.50;;;6.50;99.90;;;;;;5026453;28;20468;-90
2022/01/22 15:00:43;;;;;;;11.95;2.45;;;7.70;99.90;;;;;;5027361;28;20124;-89
2022/01/22 15:03:09;;;;;;;10.38;2.13;;;6.40;99.90;;;;;;5034663;28;20386;-88
2022/01/22 15:05:34;;;;;;;11.27;2.35;;;6.50;99.90;;;;;;5025517;28;20029;-88
2022/01/22 15:08:00;;;;;;;15.98;2.80;;;6.50;99.90;;;;;;4998011;28;20037;-88
2022/01/22 15:10:26;;;;;;;10.07;2.45;;;6.50;99.90;;;;;;5004064;28;20045;-89
2022/01/22 15:12:52;;;;;;;10.05;2.00;;;6.70;99.90;;;;;;5040047;28;20236;-88